Аэропорт: Брест-2. Брест

ICAO: UMBB

METAR:
2020-08-12 07:00:00
UMBB 120700Z 02002MPS 9000 NSC 19/11 Q1021 R11/CLRD// NOSIG
METAR:
Информация по данной станции не доступна